Time;durP1;ratioP1;P1;durP2;ratioP2;P2;SDS_P1;SDS_P2;PMS_P1;PMS_P2;Temp;Humidity;BMP_temperature;BMP_pressure;BME280_temperature;BME280_humidity;BME280_pressure;Samples;Min_cycle;Max_cycle;Signal;HPM_P1;HPM_P2
2024/04/12 00:01:03;;;;;;;;;;;;;;;15.89;46.37;101609.47;5513721;26;1240;-51
2024/04/12 00:03:29;;;;;;;;;;;;;;;16.94;47.54;101604.31;5526422;26;1217;-51
2024/04/12 00:05:57;;;;;;;;;;;;;;;16.59;47.72;101607.31;5531180;26;1100;-49
2024/04/12 00:08:29;;;;;;;;;;;;;;;16.12;47.34;101604.66;5506025;26;1297;-46
2024/04/12 00:10:56;;;;;;;;;;;;;;;16.05;46.51;101604.16;5517205;26;1824;-52
2024/04/12 00:13:26;;;;;;;;;;;;;;;17.02;47.05;101594.09;5503713;26;1130;-45
2024/04/12 00:15:58;;;;;;;;;;;;;;;16.20;47.75;101602.44;5508656;26;1194;-48
2024/04/12 00:18:28;;;;;;;;;;;;;;;16.11;46.97;101600.31;5506018;26;1186;-49
2024/04/12 00:21:01;;;;;;;;;;;;;;;15.88;46.65;101587.38;5506007;26;1114;-52
2024/04/12 00:23:30;;;;;;;;;;;;;;;16.34;47.19;101599.00;5503427;26;1547;-49
2024/04/12 00:25:59;;;;;;;;;;;;;;;16.87;47.40;101587.03;5522162;25;2738;-51
2024/04/12 00:28:32;;;;;;;;;;;;;;;16.22;47.58;101587.28;5497730;26;1173;-54
2024/04/12 00:31:01;;;;;;;;;;;;;;;16.06;46.99;101581.13;5500262;26;1828;-47
2024/04/12 00:33:32;;;;;;;;;;;;;;;15.87;46.79;101577.72;5517154;26;1257;-49
2024/04/12 00:35:59;;;;;;;;;;;;;;;15.69;46.41;101576.94;5511985;26;1420;-46
2024/04/12 00:38:24;;;;;;;;;;;;;;;17.40;46.09;101577.69;5509871;26;1161;-48
2024/04/12 00:40:52;;;;;;;;;;;;;;;16.31;47.79;101575.28;5505747;25;1402;-47
2024/04/12 00:43:18;;;;;;;;;;;;;;;16.03;47.54;101574.22;5530670;26;1236;-50
2024/04/12 00:45:48;;;;;;;;;;;;;;;15.98;47.05;101561.19;5522135;26;1174;-49
2024/04/12 00:48:17;;;;;;;;;;;;;;;16.91;47.62;101558.47;5522695;26;1152;-51
2024/04/12 00:50:43;;;;;;;;;;;;;;;16.20;47.82;101562.59;5496683;26;1830;-51
2024/04/12 00:53:13;;;;;;;;;;;;;;;17.00;47.85;101568.53;5515425;26;1106;-47
2024/04/12 00:55:39;;;;;;;;;;;;;;;16.52;48.01;101569.63;5500282;26;2809;-49
2024/04/12 00:58:09;;;;;;;;;;;;;;;16.18;47.86;101568.97;5516759;26;1246;-52
2024/04/12 01:00:46;;;;;;;;;;;;;;;15.94;47.50;101566.75;5507561;26;1153;-52
2024/04/12 01:03:14;;;;;;;;;;;;;;;16.00;47.17;101572.59;5477169;26;1185;-49
2024/04/12 01:05:40;;;;;;;;;;;;;;;17.27;46.89;101575.78;5490832;26;1318;-56
2024/04/12 01:08:06;;;;;;;;;;;;;;;16.40;47.91;101576.50;5507989;26;1324;-54
2024/04/12 01:10:34;;;;;;;;;;;;;;;16.08;47.40;101569.47;5500321;26;1852;-53
2024/04/12 01:13:02;;;;;;;;;;;;;;;15.93;47.09;101565.91;5521265;26;1809;-52
2024/04/12 01:15:37;;;;;;;;;;;;;;;16.55;47.40;101572.09;5502605;26;1787;-50
2024/04/12 01:18:04;;;;;;;;;;;;;;;16.47;47.86;101564.59;5494089;26;1122;-57
2024/04/12 01:20:32;;;;;;;;;;;;;;;16.03;48.01;101560.94;5513976;26;1005;-53
2024/04/12 01:23:03;;;;;;;;;;;;;;;15.98;47.21;101573.59;5494352;26;1223;-54
2024/04/12 01:25:29;;;;;;;;;;;;;;;16.72;47.60;101568.44;5525660;26;2615;-51
2024/04/12 01:27:55;;;;;;;;;;;;;;;16.16;47.66;101561.09;5530322;26;1114;-50
2024/04/12 01:30:21;;;;;;;;;;;;;;;16.06;47.02;101560.78;5500332;26;1872;-57
2024/04/12 01:32:50;;;;;;;;;;;;;;;16.97;47.38;101566.94;5510869;26;1157;-51
2024/04/12 01:35:16;;;;;;;;;;;;;;;16.57;47.84;101564.88;5502154;26;1308;-53
2024/04/12 01:37:43;;;;;;;;;;;;;;;16.12;47.64;101567.50;5493297;26;1122;-53
2024/04/12 01:40:12;;;;;;;;;;;;;;;15.93;47.18;101559.72;5469867;26;1392;-54
2024/04/12 01:42:43;;;;;;;;;;;;;;;15.88;46.57;101563.50;5527927;26;1572;-51
2024/04/12 01:45:14;;;;;;;;;;;;;;;15.86;46.27;101564.53;5521370;26;1857;-54
2024/04/12 01:47:42;;;;;;;;;;;;;;;15.83;45.64;101554.94;5492825;26;1324;-51
2024/04/12 01:50:08;;;;;;;;;;;;;;;16.30;46.74;101560.25;5518279;26;1836;-53
2024/04/12 01:52:49;;;;;;;;;;;;;;;16.60;47.23;101559.38;5515920;26;1318;-50
2024/04/12 01:55:19;;;;;;;;;;;;;;;16.00;47.48;101559.31;5517360;26;2892;-54
2024/04/12 01:57:49;;;;;;;;;;;;;;;16.74;47.70;101555.91;5522286;26;1344;-51
2024/04/12 02:00:20;;;;;;;;;;;;;;;16.19;48.04;101552.09;5493205;26;1256;-52
2024/04/12 02:02:59;;;;;;;;;;;;;;;15.98;47.58;101547.94;5494275;26;1274;-52
2024/04/12 02:05:34;;;;;;;;;;;;;;;17.33;47.01;101546.13;5494254;26;1276;-51
2024/04/12 02:08:07;;;;;;;;;;;;;;;16.33;47.85;101549.47;5493664;26;1135;-49
2024/04/12 02:10:34;;;;;;;;;;;;;;;15.89;47.97;101545.78;5515418;26;1830;-49
2024/04/12 02:12:59;;;;;;;;;;;;;;;15.88;47.17;101550.22;5517645;26;1276;-51
2024/04/12 02:15:28;;;;;;;;;;;;;;;15.84;46.51;101550.50;5515455;26;1348;-53
2024/04/12 02:18:02;;;;;;;;;;;;;;;16.98;47.23;101551.84;5473774;26;1285;-53
2024/04/12 02:20:33;;;;;;;;;;;;;;;16.54;47.94;101551.81;5505115;26;1376;-53
2024/04/12 02:23:19;;;;;;;;;;;;;;;16.09;47.73;101546.47;5516045;26;1511;-51
2024/04/12 02:25:44;;;;;;;;;;;;;;;15.95;47.19;101556.03;5517837;26;1174;-55
2024/04/12 02:28:11;;;;;;;;;;;;;;;15.82;46.73;101553.22;5498077;26;1797;-50
2024/04/12 02:30:44;;;;;;;;;;;;;;;16.25;47.47;101551.72;5509066;26;1829;-52
2024/04/12 02:33:10;;;;;;;;;;;;;;;16.49;47.75;101552.09;5493058;26;1830;-54
2024/04/12 02:35:41;;;;;;;;;;;;;;;16.03;47.92;101560.94;5503497;26;1235;-53
2024/04/12 02:38:07;;;;;;;;;;;;;;;15.91;47.02;101555.34;5528701;26;1150;-54
2024/04/12 02:40:33;;;;;;;;;;;;;;;15.80;46.97;101557.75;5503346;26;1383;-52
2024/04/12 02:43:04;;;;;;;;;;;;;;;15.89;47.38;101557.25;5513842;26;1134;-54
2024/04/12 02:45:30;;;;;;;;;;;;;;;16.75;47.31;101565.56;5517628;26;1304;-53
2024/04/12 02:47:57;;;;;;;;;;;;;;;16.01;47.81;101553.09;5503617;26;1257;-53
2024/04/12 02:50:23;;;;;;;;;;;;;;;15.85;47.34;101560.19;5516623;26;1830;-54
2024/04/12 02:52:49;;;;;;;;;;;;;;;16.02;47.32;101575.16;5510737;26;1161;-49
2024/04/12 02:55:14;;;;;;;;;;;;;;;16.43;47.45;101573.69;5516718;26;2006;-49
2024/04/12 02:57:41;;;;;;;;;;;;;;;16.02;47.46;101567.19;5519799;26;1848;-51
2024/04/12 03:00:22;;;;;;;;;;;;;;;15.80;47.15;101576.34;5519942;26;1322;-52
2024/04/12 03:02:53;;;;;;;;;;;;;;;16.08;47.77;101574.78;5523784;26;1955;-54
2024/04/12 03:05:19;;;;;;;;;;;;;;;16.79;47.37;101584.00;5516345;26;1084;-57
2024/04/12 03:07:46;;;;;;;;;;;;;;;16.14;47.93;101577.13;5502333;26;1266;-55
2024/04/12 03:10:24;;;;;;;;;;;;;;;16.17;48.07;101573.41;5492489;26;1822;-54
2024/04/12 03:12:51;;;;;;;;;;;;;;;16.52;47.85;101575.78;5499974;26;1317;-54
2024/04/12 03:15:18;;;;;;;;;;;;;;;16.02;47.79;101570.72;5510157;26;1182;-54
2024/04/12 03:17:47;;;;;;;;;;;;;;;16.39;48.20;101575.69;5523322;26;1228;-53
2024/04/12 03:20:15;;;;;;;;;;;;;;;16.52;47.90;101574.94;5492293;26;1258;-52
2024/04/12 03:22:42;;;;;;;;;;;;;;;16.10;47.66;101570.25;5525336;26;1621;-55
2024/04/12 03:25:07;;;;;;;;;;;;;;;15.94;47.13;101566.75;5509365;26;1272;-53
2024/04/12 03:27:33;;;;;;;;;;;;;;;16.85;47.27;101587.13;5507834;26;1335;-53
2024/04/12 03:29:58;;;;;;;;;;;;;;;16.23;47.50;101575.69;5527610;26;1850;-55
2024/04/12 03:32:32;;;;;;;;;;;;;;;15.93;47.36;101576.53;5526652;26;1705;-55
2024/04/12 03:35:00;;;;;;;;;;;;;;;16.03;47.70;101576.88;5508191;26;1470;-50
2024/04/12 03:37:36;;;;;;;;;;;;;;;16.61;47.62;101582.38;5526941;26;1314;-52
2024/04/12 03:40:21;;;;;;;;;;;;;;;16.03;47.92;101582.19;5506440;26;1310;-52
2024/04/12 03:42:46;;;;;;;;;;;;;;;15.89;47.17;101586.44;5527075;26;1122;-52
2024/04/12 03:45:15;;;;;;;;;;;;;;;15.79;46.60;101591.41;5518876;26;1685;-57
2024/04/12 03:47:41;;;;;;;;;;;;;;;16.52;47.36;101589.06;5483992;26;1168;-53
2024/04/12 03:50:13;;;;;;;;;;;;;;;16.53;47.88;101588.13;5491372;26;1825;-54
2024/04/12 03:52:48;;;;;;;;;;;;;;;16.08;47.90;101585.41;5506546;26;1172;-51
2024/04/12 03:55:13;;;;;;;;;;;;;;;16.67;48.29;101589.09;5498792;26;1118;-53
2024/04/12 03:57:39;;;;;;;;;;;;;;;16.71;47.84;101587.97;5508053;26;1193;-49
2024/04/12 04:00:11;;;;;;;;;;;;;;;16.21;48.00;101590.03;5499413;26;1312;-51
2024/04/12 04:02:40;;;;;;;;;;;;;;;16.87;48.12;101593.22;5510154;26;1167;-48
2024/04/12 04:05:14;;;;;;;;;;;;;;;16.80;48.00;101597.19;5503467;26;1392;-53
2024/04/12 04:07:46;;;;;;;;;;;;;;;17.73;46.47;101603.91;5485962;26;3169;-49
2024/04/12 04:10:14;;;;;;;;;;;;;;;17.37;47.28;101600.84;5473749;26;2410;-47
2024/04/12 04:12:45;;;;;;;;;;;;;;;17.09;48.02;101599.03;5516705;26;2452;-49
2024/04/12 04:15:14;;;;;;;;;;;;;;;16.98;48.40;101597.03;5522788;26;2131;-50
2024/04/12 04:17:40;;;;;;;;;;;;;;;16.79;48.62;101599.94;5512489;26;2738;-48
2024/04/12 04:20:06;;;;;;;;;;;;;;;16.67;49.06;101593.56;5501456;26;2229;-50
2024/04/12 04:25:00;;;;;;;;;;;;;;;16.48;49.47;101614.09;5515177;26;1240;-51
2024/04/12 04:27:25;;;;;;;;;;;;;;;16.41;49.62;101607.44;5494777;26;1260;-48
2024/04/12 04:29:51;;;;;;;;;;;;;;;16.30;49.92;101608.06;5494367;26;1840;-49
2024/04/12 04:32:21;;;;;;;;;;;;;;;16.25;50.17;101610.13;5506112;26;1185;-48
2024/04/12 04:34:54;;;;;;;;;;;;;;;16.14;50.37;101616.94;5530229;26;1166;-48
2024/04/12 04:37:23;;;;;;;;;;;;;;;16.06;50.52;101621.81;5511793;26;1025;-50
2024/04/12 04:39:48;;;;;;;;;;;;;;;15.97;50.78;101623.16;5497428;26;1293;-50
2024/04/12 04:42:14;;;;;;;;;;;;;;;15.91;50.74;101621.69;5519200;26;1168;-46
2024/04/12 04:44:40;;;;;;;;;;;;;;;15.89;50.96;101623.59;5494937;26;1134;-47
2024/04/12 04:47:05;;;;;;;;;;;;;;;16.39;50.43;101627.91;5522745;26;1169;-45
2024/04/12 04:49:32;;;;;;;;;;;;;;;17.28;48.35;101628.03;5526548;26;1856;-49
2024/04/12 04:51:57;;;;;;;;;;;;;;;16.56;50.23;101634.03;5502091;26;2688;-50
2024/04/12 04:54:23;;;;;;;;;;;;;;;16.33;50.47;101633.59;5511365;26;1164;-48
2024/04/12 04:56:51;;;;;;;;;;;;;;;16.18;50.82;101630.03;5505820;26;1340;-51
2024/04/12 04:59:17;;;;;;;;;;;;;;;16.03;51.22;101632.63;5514242;26;1173;-51
2024/04/12 05:01:44;;;;;;;;;;;;;;;15.99;51.18;101641.69;5505234;26;1300;-49
2024/04/12 05:04:15;;;;;;;;;;;;;;;15.84;51.61;101636.25;5530779;26;1219;-49
2024/04/12 05:06:41;;;;;;;;;;;;;;;17.24;48.78;101638.00;5506252;25;1410;-55
2024/04/12 05:09:08;;;;;;;;;;;;;;;17.05;49.01;101640.03;5494234;26;1435;-53
2024/04/12 05:11:34;;;;;;;;;;;;;;;16.62;49.91;101633.69;5496159;26;1830;-54
2024/04/12 05:14:13;;;;;;;;;;;;;;;16.26;51.03;101644.59;5466635;26;1431;-51
2024/04/12 05:16:42;;;;;;;;;;;;;;;16.20;51.04;101642.25;5500302;26;1391;-51
2024/04/12 05:19:12;;;;;;;;;;;;;;;16.01;51.42;101637.16;5498334;26;1404;-50
2024/04/12 05:21:40;;;;;;;;;;;;;;;16.01;51.49;101637.16;5494723;26;2639;-51
2024/04/12 05:24:09;;;;;;;;;;;;;;;15.85;51.79;101637.97;5529976;26;1138;-49
2024/04/12 05:26:41;;;;;;;;;;;;;;;16.37;51.25;101625.34;5504586;26;1615;-48
2024/04/12 05:29:13;;;;;;;;;;;;;;;17.57;48.19;101627.13;5529440;26;1314;-53
2024/04/12 05:31:42;;;;;;;;;;;;;;;16.82;50.00;101626.31;5524823;26;1839;-50
2024/04/12 05:34:12;;;;;;;;;;;;;;;16.43;50.93;101629.47;5530513;26;1322;-48
2024/04/12 05:36:41;;;;;;;;;;;;;;;16.25;51.07;101626.06;5499183;26;1360;-55
2024/04/12 05:39:11;;;;;;;;;;;;;;;16.19;51.39;101632.59;5524052;26;1459;-50
2024/04/12 05:41:37;;;;;;;;;;;;;;;16.06;51.61;101631.56;5492973;26;1438;-50
2024/04/12 05:44:03;;;;;;;;;;;;;;;15.89;52.03;101631.56;5517490;26;1446;-51
2024/04/12 05:46:29;;;;;;;;;;;;;;;16.95;50.00;101637.09;5498187;26;1388;-57
2024/04/12 05:49:08;;;;;;;;;;;;;;;17.55;48.55;101640.53;5517569;26;1225;-53
2024/04/12 05:51:34;;;;;;;;;;;;;;;16.73;50.45;101638.38;5514861;26;2856;-56
2024/04/12 05:54:10;;;;;;;;;;;;;;;16.48;51.09;101640.66;5511074;26;1348;-51
2024/04/12 05:56:39;;;;;;;;;;;;;;;16.35;51.04;101639.69;5497620;26;1395;-49
2024/04/12 05:59:13;;;;;;;;;;;;;;;16.22;51.83;101639.50;5494162;26;1266;-51
2024/04/12 06:01:43;;;;;;;;;;;;;;;16.12;51.60;101645.34;5499154;26;1328;-51
2024/04/12 06:04:23;;;;;;;;;;;;;;;16.02;51.94;101641.50;5522409;26;1249;-51
2024/04/12 06:06:49;;;;;;;;;;;;;;;15.93;51.97;101648.16;5505881;25;1432;-48
2024/04/12 06:09:21;;;;;;;;;;;;;;;16.00;52.20;101646.91;5512164;26;1264;-54
2024/04/12 06:11:50;;;;;;;;;;;;;;;17.48;49.35;101663.16;5524357;26;1158;-54
2024/04/12 06:14:16;;;;;;;;;;;;;;;16.96;50.33;101649.41;5522866;26;1220;-53
2024/04/12 06:16:43;;;;;;;;;;;;;;;16.45;51.67;101646.16;5512974;26;1198;-46
2024/04/12 06:19:12;;;;;;;;;;;;;;;16.28;51.77;101649.78;5488768;26;1242;-55
2024/04/12 06:21:38;;;;;;;;;;;;;;;16.17;52.08;101647.75;5517059;26;2882;-52
2024/04/12 06:24:08;;;;;;;;;;;;;;;15.97;52.50;101648.81;5504564;26;1279;-52
2024/04/12 06:26:39;;;;;;;;;;;;;;;15.98;52.29;101647.91;5503277;26;1095;-49
2024/04/12 06:29:09;;;;;;;;;;;;;;;16.68;51.53;101651.06;5501392;26;1372;-48
2024/04/12 06:31:34;;;;;;;;;;;;;;;17.42;49.05;101650.22;5525238;26;1836;-52
2024/04/12 06:34:06;;;;;;;;;;;;;;;16.72;50.96;101644.63;5502426;26;1354;-50
2024/04/12 06:36:33;;;;;;;;;;;;;;;16.38;51.96;101652.78;5528114;26;1275;-50
2024/04/12 06:39:04;;;;;;;;;;;;;;;16.19;52.09;101645.00;5498405;26;1241;-53
2024/04/12 06:41:31;;;;;;;;;;;;;;;16.16;52.06;101654.00;5509965;26;1157;-52
2024/04/12 06:43:56;;;;;;;;;;;;;;;16.03;52.33;101649.38;5499087;26;1122;-53
2024/04/12 06:46:27;;;;;;;;;;;;;;;15.96;52.32;101637.38;5509955;26;1162;-53
2024/04/12 06:48:59;;;;;;;;;;;;;;;15.92;52.42;101641.13;5497776;26;1242;-55
2024/04/12 06:51:25;;;;;;;;;;;;;;;16.10;52.49;101644.56;5525224;26;2699;-50
2024/04/12 06:53:54;;;;;;;;;;;;;;;17.51;49.73;101647.00;5525168;26;1226;-52
2024/04/12 06:56:20;;;;;;;;;;;;;;;16.98;50.47;101645.72;5528745;26;1110;-51
2024/04/12 06:58:46;;;;;;;;;;;;;;;16.59;51.26;101644.50;5504156;26;1366;-53
2024/04/12 07:01:12;;;;;;;;;;;;;;;16.32;52.05;101640.69;5523524;26;1240;-53
2024/04/12 07:03:40;;;;;;;;;;;;;;;16.22;52.14;101636.84;5528021;26;1116;-49
2024/04/12 07:06:07;;;;;;;;;;;;;;;16.10;52.38;101639.25;5528438;26;1178;-53
2024/04/12 07:08:33;;;;;;;;;;;;;;;16.01;52.44;101639.81;5488130;25;1502;-53
2024/04/12 07:11:06;;;;;;;;;;;;;;;16.16;52.58;101638.91;5536338;25;1826;-53
2024/04/12 07:13:33;;;;;;;;;;;;;;;17.35;50.13;101647.94;5507725;26;1233;-49
2024/04/12 07:16:02;;;;;;;;;;;;;;;16.65;51.58;101642.31;5516161;26;1268;-52
2024/04/12 07:18:29;;;;;;;;;;;;;;;16.38;52.26;101640.34;5513142;26;1246;-52
2024/04/12 07:21:14;;;;;;;;;;;;;;;16.22;52.28;101643.03;5494594;26;1242;-51
2024/04/12 07:23:46;;;;;;;;;;;;;;;16.08;52.64;101640.31;5526967;26;2812;-53
2024/04/12 07:26:14;;;;;;;;;;;;;;;15.99;52.66;101639.88;5513401;26;1737;-52
2024/04/12 07:28:41;;;;;;;;;;;;;;;15.97;52.62;101646.16;5496411;26;1332;-53
2024/04/12 07:31:06;;;;;;;;;;;;;;;15.88;52.85;101650.22;5510146;26;1870;-48
2024/04/12 07:33:33;;;;;;;;;;;;;;;16.73;52.01;101654.31;5507194;26;1286;-49
2024/04/12 07:35:59;;;;;;;;;;;;;;;17.46;50.05;101655.28;5507956;26;1324;-52
2024/04/12 07:38:25;;;;;;;;;;;;;;;16.73;51.77;101643.69;5509101;26;1131;-50
2024/04/12 07:40:53;;;;;;;;;;;;;;;16.48;52.22;101653.94;5515610;26;1300;-48
2024/04/12 07:43:19;;;;;;;;;;;;;;;16.27;52.49;101648.94;5507177;26;1191;-52
2024/04/12 07:45:44;;;;;;;;;;;;;;;16.19;52.58;101653.81;5495784;26;1213;-49
2024/04/12 07:48:23;;;;;;;;;;;;;;;16.08;52.82;101649.09;5508716;26;1290;-48
2024/04/12 07:50:54;;;;;;;;;;;;;;;15.89;53.00;101655.44;5512115;26;1852;-49
2024/04/12 07:53:23;;;;;;;;;;;;;;;16.35;52.94;101648.47;5507590;26;2833;-52
2024/04/12 07:56:00;;;;;;;;;;;;;;;17.62;49.68;101657.81;5463913;26;1264;-50
2024/04/12 07:58:27;;;;;;;;;;;;;;;16.93;51.13;101652.25;5528355;26;1203;-50
2024/04/12 08:01:09;;;;;;;;;;;;;;;16.50;52.35;101656.50;5488761;26;1306;-55
2024/04/12 08:03:37;;;;;;;;;;;;;;;16.44;52.41;101659.50;5498673;26;1353;-52
2024/04/12 08:06:03;;;;;;;;;;;;;;;16.20;52.85;101654.69;5500373;26;1250;-49
2024/04/12 08:08:29;;;;;;;;;;;;;;;16.07;52.86;101646.53;5507612;26;1496;-51
2024/04/12 08:10:56;;;;;;;;;;;;;;;16.06;52.94;101647.50;5510848;26;1857;-50
2024/04/12 08:13:28;;;;;;;;;;;;;;;15.98;52.92;101650.56;5503097;26;1361;-49
2024/04/12 08:15:55;;;;;;;;;;;;;;;15.91;53.08;101650.88;5501932;26;1432;-50
2024/04/12 08:18:24;;;;;;;;;;;;;;;17.21;51.21;101648.81;5503784;26;1274;-51
2024/04/12 08:20:49;;;;;;;;;;;;;;;17.11;51.14;101637.91;5494754;26;1449;-49
2024/04/12 08:23:17;;;;;;;;;;;;;;;16.63;52.29;101644.22;5524666;26;2273;-51
2024/04/12 08:25:48;;;;;;;;;;;;;;;16.37;52.61;101645.75;5530949;26;1272;-50
2024/04/12 08:28:15;;;;;;;;;;;;;;;16.33;52.60;101649.53;5519595;26;1151;-50
2024/04/12 08:30:51;;;;;;;;;;;;;;;17.31;51.50;101661.53;5527626;26;1820;-53
2024/04/12 08:33:29;;;;;;;;;;;;;;;16.80;51.85;101660.13;5505374;26;1217;-50
2024/04/12 08:35:57;;;;;;;;;;;;;;;16.17;53.36;101653.03;5528887;26;1069;-48
2024/04/12 08:38:23;;;;;;;;;;;;;;;16.07;53.43;101647.41;5529743;26;1157;-53
2024/04/12 08:40:52;;;;;;;;;;;;;;;15.97;53.52;101652.34;5499219;26;1184;-51
2024/04/12 08:43:19;;;;;;;;;;;;;;;17.17;52.47;101646.41;5462936;26;1170;-52
2024/04/12 08:45:47;;;;;;;;;;;;;;;17.16;52.17;101640.28;5527055;26;1240;-54
2024/04/12 08:48:12;;;;;;;;;;;;;;;16.63;53.00;101644.22;5499557;26;1115;-49
2024/04/12 08:50:39;;;;;;;;;;;;;;;16.35;53.49;101635.19;5441325;26;1821;-50
2024/04/12 08:53:11;;;;;;;;;;;;;;;16.29;53.39;101635.56;5431242;26;2851;-52
2024/04/12 08:55:42;;;;;;;;;;;;;;;16.15;53.73;101639.00;5445773;26;1217;-52
2024/04/12 08:58:08;;;;;;;;;;;;;;;16.02;53.55;101628.22;5422065;26;1234;-50
2024/04/12 09:00:34;;;;;;;;;;;;;;;15.99;53.61;101625.75;5455908;26;1200;-52
2024/04/12 09:03:04;;;;;;;;;;;;;;;16.00;53.30;101622.16;5446711;26;1534;-52
2024/04/12 09:05:30;;;;;;;;;;;;;;;15.87;53.50;101629.91;5457104;26;1158;-50
2024/04/12 09:07:58;;;;;;;;;;;;;;;16.97;52.83;101632.50;5432717;26;1441;-48
2024/04/12 09:10:27;;;;;;;;;;;;;;;17.60;50.98;101629.63;5457488;26;1818;-51
2024/04/12 09:12:53;;;;;;;;;;;;;;;16.83;52.95;101631.53;5441016;26;1224;-54
2024/04/12 09:15:27;;;;;;;;;;;;;;;16.45;53.56;101621.41;5430805;26;1323;-50
2024/04/12 09:18:13;;;;;;;;;;;;;;;16.34;53.70;101625.53;5452962;26;1301;-54
2024/04/12 09:20:39;;;;;;;;;;;;;;;16.26;53.52;101619.81;5454496;26;1448;-51
2024/04/12 09:23:14;;;;;;;;;;;;;;;16.19;53.43;101623.75;5435626;26;2580;-51
2024/04/12 09:25:41;;;;;;;;;;;;;;;16.07;53.46;101610.25;5425154;26;1305;-50
2024/04/12 09:28:12;;;;;;;;;;;;;;;15.99;53.78;101609.81;5426265;26;1317;-48
2024/04/12 09:33:26;;;;;;;;;;;;;;;16.39;53.66;101618.16;5423507;26;1283;-52
2024/04/12 09:35:52;;;;;;;;;;;;;;;17.52;51.87;101611.47;5426298;26;1436;-54
2024/04/12 09:38:21;;;;;;;;;;;;;;;16.79;53.08;101616.75;5429762;26;1444;-47
2024/04/12 09:41:02;;;;;;;;;;;;;;;16.45;53.65;101616.94;5425461;26;1114;-51
2024/04/12 09:43:31;;;;;;;;;;;;;;;16.30;53.69;101607.22;5427259;26;1434;-48
2024/04/12 09:46:23;;;;;;;;;;;;;;;16.17;54.04;101610.56;5429732;26;1172;-54
2024/04/12 10:38:16;;;;;;;;;;;;;;;16.15;53.72;101608.00;5529244;26;1489;-52
2024/04/12 10:40:45;;;;;;;;;;;;;;;16.05;54.30;101605.97;5526906;26;1345;-52
2024/04/12 10:43:13;;;;;;;;;;;;;;;16.03;53.96;101606.91;5509226;26;1234;-50
2024/04/12 10:45:39;;;;;;;;;;;;;;;15.95;53.96;101603.81;5492697;26;1127;-47
2024/04/12 10:48:05;;;;;;;;;;;;;;;15.97;53.61;101603.72;5504197;26;1169;-50
2024/04/12 10:50:31;;;;;;;;;;;;;;;16.93;53.19;101599.97;5522790;26;1896;-54
2024/04/12 10:53:06;;;;;;;;;;;;;;;17.29;52.67;101602.28;5484913;26;2676;-49
2024/04/12 10:55:34;;;;;;;;;;;;;;;16.66;53.76;101606.00;5516805;26;1126;-55
2024/04/12 10:58:01;;;;;;;;;;;;;;;16.50;53.85;101614.00;5516834;26;1272;-53
2024/04/12 11:00:30;;;;;;;;;;;;;;;16.32;53.87;101607.97;5517288;26;1388;-55
2024/04/12 11:02:59;;;;;;;;;;;;;;;16.23;54.01;101609.38;5516686;26;1319;-50
2024/04/12 11:05:38;;;;;;;;;;;;;;;16.19;53.94;101602.53;5510121;26;1091;-52
2024/04/12 11:08:06;;;;;;;;;;;;;;;16.08;53.98;101603.97;5519843;25;1461;-54
2024/04/12 11:10:38;;;;;;;;;;;;;;;16.07;53.66;101596.97;5528424;26;1837;-52
2024/04/12 11:13:06;;;;;;;;;;;;;;;15.98;53.72;101601.00;5527161;26;1401;-50
2024/04/12 11:31:52;;;;;;;;;;;;;;;16.21;53.74;101582.06;5495445;26;1302;-48
2024/04/12 11:34:17;;;;;;;;;;;;;;;16.16;53.70;101579.69;5504962;26;1352;-53
2024/04/12 11:36:44;;;;;;;;;;;;;;;16.13;53.74;101570.06;5524765;26;1417;-55
2024/04/12 11:39:17;;;;;;;;;;;;;;;15.98;53.77;101566.50;5530396;26;1290;-53
2024/04/12 11:41:46;;;;;;;;;;;;;;;15.98;53.72;101568.28;5510205;26;1547;-55
2024/04/12 11:44:17;;;;;;;;;;;;;;;15.91;53.98;101570.44;5514039;26;1453;-51
2024/04/12 11:46:45;;;;;;;;;;;;;;;17.29;52.52;101565.91;5508726;26;1360;-50
2024/04/12 11:49:11;;;;;;;;;;;;;;;17.36;52.25;101574.34;5517462;26;1348;-54
2024/04/12 11:51:37;;;;;;;;;;;;;;;16.72;53.58;101559.59;5522445;26;2838;-51
2024/04/12 11:54:05;;;;;;;;;;;;;;;16.55;53.63;101563.28;5498557;26;1192;-52
2024/04/12 11:56:31;;;;;;;;;;;;;;;16.39;54.06;101561.53;5519759;26;1149;-49
2024/04/12 11:58:58;;;;;;;;;;;;;;;16.34;53.89;101564.47;5508677;26;1151;-50
2024/04/12 12:01:23;;;;;;;;;;;;;;;15.94;53.58;101516.31;5523192;26;1267;-50
2024/04/12 12:03:49;;;;;;;;;;;;;;;16.13;53.86;101553.31;5499107;26;1110;-50
2024/04/12 12:06:16;;;;;;;;;;;;;;;16.06;53.75;101554.59;5530993;26;1493;-51
2024/04/12 12:08:42;;;;;;;;;;;;;;;16.02;53.80;101553.91;5507033;26;1529;-57
2024/04/12 12:11:08;;;;;;;;;;;;;;;15.91;54.04;101554.50;5519823;26;1856;-54
2024/04/12 12:13:34;;;;;;;;;;;;;;;15.89;53.89;101556.41;5525857;26;1307;-53
2024/04/12 12:16:00;;;;;;;;;;;;;;;16.96;53.40;101554.59;5530122;26;1397;-54
2024/04/12 12:18:27;;;;;;;;;;;;;;;17.24;52.69;101552.03;5518118;26;1289;-57
2024/04/12 12:20:53;;;;;;;;;;;;;;;16.73;53.61;101542.72;5516696;26;1254;-57
2024/04/12 12:23:19;;;;;;;;;;;;;;;16.47;53.94;101548.66;5509369;26;2680;-55
2024/04/12 12:25:47;;;;;;;;;;;;;;;16.32;54.14;101553.06;5519150;26;1304;-56
2024/04/12 12:28:13;;;;;;;;;;;;;;;16.21;54.15;101556.38;5508803;26;1133;-51
2024/04/12 12:30:38;;;;;;;;;;;;;;;16.15;54.00;101562.88;5518434;26;1830;-54
2024/04/12 12:33:07;;;;;;;;;;;;;;;16.08;53.87;101550.06;5494572;26;1229;-56
2024/04/12 12:35:33;;;;;;;;;;;;;;;15.98;54.00;101555.03;5502835;26;1138;-52
2024/04/12 12:38:01;;;;;;;;;;;;;;;15.99;53.87;101552.31;5509074;26;1286;-50
2024/04/12 12:40:29;;;;;;;;;;;;;;;15.97;54.12;101556.81;5521035;26;1258;-53
2024/04/12 12:42:55;;;;;;;;;;;;;;;17.35;52.64;101551.38;5519848;26;1368;-55
2024/04/12 12:45:20;;;;;;;;;;;;;;;17.02;53.03;101562.19;5531041;26;1160;-57
2024/04/12 12:47:47;;;;;;;;;;;;;;;16.60;53.98;101555.91;5505889;26;1110;-54
2024/04/12 12:50:19;;;;;;;;;;;;;;;16.41;54.09;101543.72;5530673;26;1948;-55
2024/04/12 12:52:49;;;;;;;;;;;;;;;16.29;53.99;101545.28;5521349;26;2709;-57
2024/04/12 12:55:16;;;;;;;;;;;;;;;16.13;54.07;101562.09;5530669;26;1160;-55
2024/04/12 12:57:44;;;;;;;;;;;;;;;16.10;54.04;101551.69;5526222;26;1272;-54
2024/04/12 13:00:18;;;;;;;;;;;;;;;16.03;53.83;101545.03;5525282;26;1213;-54
2024/04/12 13:02:44;;;;;;;;;;;;;;;16.39;54.18;101550.91;5525695;26;1326;-50
2024/04/12 13:05:14;;;;;;;;;;;;;;;17.48;52.44;101549.63;5512136;26;1118;-54
2024/04/12 13:07:40;;;;;;;;;;;;;;;16.74;53.55;101552.38;5493948;26;1398;-55
2024/04/12 13:10:12;;;;;;;;;;;;;;;16.45;53.94;101545.22;5506095;26;1829;-56
2024/04/12 13:12:40;;;;;;;;;;;;;;;16.39;53.81;101535.84;5529610;26;1134;-57
2024/04/12 13:15:12;;;;;;;;;;;;;;;16.22;53.89;101536.84;5515569;26;1448;-55
2024/04/12 13:17:37;;;;;;;;;;;;;;;16.14;53.74;101528.47;5506520;26;1301;-54
2024/04/12 13:20:06;;;;;;;;;;;;;;;16.09;53.70;101538.50;5499633;26;1439;-54
2024/04/12 13:22:32;;;;;;;;;;;;;;;16.13;54.14;101532.06;5501969;26;2614;-56
2024/04/12 13:25:00;;;;;;;;;;;;;;;17.43;52.77;101532.25;5499485;26;1278;-55
2024/04/12 13:27:29;;;;;;;;;;;;;;;16.94;53.41;101537.03;5509499;26;1327;-56
2024/04/12 13:29:55;;;;;;;;;;;;;;;16.57;53.73;101526.84;5498532;26;1866;-56
2024/04/12 13:32:20;;;;;;;;;;;;;;;16.38;54.05;101531.47;5501070;26;1576;-53
2024/04/12 13:34:46;;;;;;;;;;;;;;;16.22;54.01;101520.91;5506433;26;1431;-50
2024/04/12 13:37:14;;;;;;;;;;;;;;;16.08;54.08;101519.06;5519280;26;1312;-55
2024/04/12 13:39:39;;;;;;;;;;;;;;;16.09;54.00;101514.59;5507642;26;1380;-56
2024/04/12 13:42:10;;;;;;;;;;;;;;;15.94;54.09;101525.16;5528271;26;1169;-58
2024/04/12 13:52:48;;;;;;;;;;;;;;;16.61;54.54;101539.88;5511291;26;2644;-56
2024/04/12 13:55:14;;;;;;;;;;;;;;;16.47;54.21;101542.47;5506652;26;1258;-57
2024/04/12 13:57:40;;;;;;;;;;;;;;;16.32;54.10;101542.44;5529255;26;1256;-59
2024/04/12 14:00:10;;;;;;;;;;;;;;;16.22;53.95;101542.16;5506911;26;1129;-56
2024/04/12 14:02:38;;;;;;;;;;;;;;;16.13;54.13;101545.34;5529295;26;1156;-58
2024/04/12 14:05:03;;;;;;;;;;;;;;;15.97;53.94;101540.88;5523943;26;1274;-48
2024/04/12 14:07:33;;;;;;;;;;;;;;;16.08;54.36;101550.06;5502440;26;1252;-56
2024/04/12 14:10:04;;;;;;;;;;;;;;;17.37;53.33;101546.78;5509114;26;1829;-54
2024/04/12 14:12:30;;;;;;;;;;;;;;;17.10;53.83;101548.44;5529303;26;1141;-52
2024/04/12 14:14:55;;;;;;;;;;;;;;;16.59;54.39;101543.53;5530279;26;1115;-53